createdAt,value
2019-05-30T00:00:40.903Z,15.00
2019-05-30T00:05:46.763Z,15.00
2019-05-30T00:10:52.539Z,14.90
2019-05-30T00:15:58.751Z,14.90
2019-05-30T00:21:04.955Z,14.40
2019-05-30T00:26:10.210Z,14.60
2019-05-30T00:31:14.990Z,14.50
2019-05-30T00:36:19.862Z,14.70
2019-05-30T00:41:25.054Z,14.40
2019-05-30T00:46:30.223Z,14.40
2019-05-30T00:51:35.099Z,14.20
2019-05-30T00:56:40.318Z,14.30
2019-05-30T01:01:45.091Z,14.00
2019-05-30T01:06:49.969Z,14.00
2019-05-30T01:11:54.808Z,14.10
2019-05-30T01:17:01.080Z,14.10
2019-05-30T01:22:07.530Z,13.90
2019-05-30T01:27:12.979Z,14.10
2019-05-30T01:32:30.483Z,14.10
2019-05-30T01:37:35.310Z,14.20
2019-05-30T01:42:40.497Z,14.30
2019-05-30T01:47:46.032Z,14.30
2019-05-30T01:52:51.269Z,14.30
2019-05-30T01:57:56.172Z,14.30
2019-05-30T02:03:01.369Z,14.30
2019-05-30T02:08:07.513Z,14.30
2019-05-30T02:13:12.796Z,14.20
2019-05-30T02:18:17.670Z,14.30
2019-05-30T02:23:22.473Z,14.20
2019-05-30T02:28:27.339Z,14.20
2019-05-30T02:33:32.196Z,14.30
2019-05-30T02:38:37.368Z,14.40
2019-05-30T02:43:43.675Z,14.40
2019-05-30T02:48:58.752Z,14.30
2019-05-30T02:53:55.028Z,14.30
2019-05-30T02:59:01.528Z,14.50
2019-05-30T03:04:08.730Z,14.50
2019-05-30T03:09:14.788Z,14.50
2019-05-30T03:14:20.269Z,14.50
2019-05-30T03:19:26.277Z,14.40
2019-05-30T03:24:31.495Z,14.40
2019-05-30T03:29:36.707Z,14.50
2019-05-30T03:34:42.330Z,14.60
2019-05-30T03:39:48.570Z,14.50
2019-05-30T03:44:53.834Z,14.50
2019-05-30T03:50:00.431Z,14.50
2019-05-30T03:55:06.860Z,14.60
2019-05-30T04:00:26.527Z,14.40
2019-05-30T04:05:40.229Z,14.40
2019-05-30T04:10:48.196Z,14.40
2019-05-30T04:15:53.163Z,14.30
2019-05-30T04:20:58.031Z,14.40
2019-05-30T04:26:03.273Z,14.40
2019-05-30T04:31:09.943Z,14.40
2019-05-30T04:36:17.004Z,14.40
2019-05-30T04:41:22.761Z,14.40
2019-05-30T04:46:27.953Z,14.40
2019-05-30T04:51:32.851Z,14.40
2019-05-30T04:56:37.999Z,14.50
2019-05-30T05:01:42.969Z,14.50
2019-05-30T05:06:49.333Z,14.50
2019-05-30T05:11:54.862Z,14.50
2019-05-30T05:16:59.845Z,14.50
2019-05-30T05:22:04.810Z,14.60
2019-05-30T05:27:10.150Z,14.50
2019-05-30T05:32:18.220Z,14.60
2019-05-30T05:37:23.629Z,14.70
2019-05-30T05:42:30.266Z,14.70
2019-05-30T05:47:35.904Z,14.70
2019-05-30T05:52:41.070Z,14.80
2019-05-30T05:57:47.896Z,14.80
2019-05-30T06:02:55.447Z,14.80
2019-05-30T06:08:00.125Z,14.80
2019-05-30T06:13:05.324Z,14.80
2019-05-30T06:18:11.552Z,14.70
2019-05-30T06:23:17.299Z,14.70
2019-05-30T06:28:22.496Z,14.80
2019-05-30T06:33:29.051Z,14.90
2019-05-30T06:38:35.352Z,14.90
2019-05-30T06:43:40.739Z,15.00
2019-05-30T06:48:46.582Z,15.00
2019-05-30T06:53:51.952Z,15.10
2019-05-30T06:58:57.791Z,15.20
2019-05-30T07:04:03.092Z,15.20
2019-05-30T07:09:15.032Z,15.30
2019-05-30T07:14:35.177Z,15.30
2019-05-30T07:19:48.595Z,15.40
2019-05-30T07:24:54.061Z,15.40
2019-05-30T07:29:59.448Z,15.50
2019-05-30T07:35:07.144Z,15.70
2019-05-30T07:40:19.710Z,15.80
2019-05-30T07:45:31.144Z,15.70
2019-05-30T07:50:39.361Z,15.80
2019-05-30T07:55:45.429Z,15.90
2019-05-30T08:00:50.455Z,16.00
2019-05-30T08:05:55.687Z,15.90
2019-05-30T08:11:09.448Z,15.90
2019-05-30T08:16:08.082Z,15.90
2019-05-30T08:21:13.165Z,16.00
2019-05-30T08:26:18.466Z,16.00
2019-05-30T08:31:24.580Z,16.00
2019-05-30T08:36:30.733Z,16.00
2019-05-30T08:41:37.365Z,16.00
2019-05-30T08:46:43.313Z,16.10
2019-05-30T08:51:49.532Z,16.50
2019-05-30T08:56:54.676Z,16.40
2019-05-30T09:02:02.991Z,16.20
2019-05-30T09:07:08.103Z,16.10
2019-05-30T09:12:15.028Z,16.10
2019-05-30T09:17:20.567Z,16.00
2019-05-30T09:22:25.557Z,16.00
2019-05-30T09:27:30.587Z,16.20
2019-05-30T09:32:35.893Z,16.30
2019-05-30T09:37:44.490Z,16.30
2019-05-30T09:42:50.803Z,16.30
2019-05-30T09:47:55.786Z,16.40
2019-05-30T09:53:00.769Z,16.40
2019-05-30T09:58:05.930Z,16.50
2019-05-30T10:03:10.923Z,16.50
2019-05-30T10:08:15.992Z,16.60
2019-05-30T10:13:21.297Z,16.60
2019-05-30T10:18:26.459Z,16.60
2019-05-30T10:23:31.498Z,16.60
2019-05-30T10:28:36.487Z,16.60
2019-05-30T10:33:41.408Z,16.60
2019-05-30T10:38:47.428Z,16.70
2019-05-30T10:43:53.211Z,16.60
2019-05-30T10:48:58.180Z,16.50
2019-05-30T10:54:04.119Z,16.50
2019-05-30T10:59:10.045Z,16.60
2019-05-30T11:04:15.034Z,16.60
2019-05-30T11:09:23.074Z,16.70
2019-05-30T11:14:28.708Z,16.60
2019-05-30T11:19:33.606Z,16.90
2019-05-30T11:24:38.522Z,17.00
2019-05-30T11:29:43.519Z,17.10
2019-05-30T11:34:51.070Z,17.40
2019-05-30T11:39:57.250Z,17.70
2019-05-30T11:45:02.738Z,17.90
2019-05-30T11:50:08.575Z,17.90
2019-05-30T11:55:15.005Z,18.00
2019-05-30T12:00:20.293Z,18.30
2019-05-30T12:05:25.950Z,18.40
2019-05-30T12:10:32.376Z,18.60
2019-05-30T12:15:37.768Z,18.80
2019-05-30T12:20:43.385Z,19.00
2019-05-30T12:25:48.853Z,19.00
2019-05-30T12:30:59.095Z,19.10
2019-05-30T12:36:02.687Z,19.30
2019-05-30T12:41:09.005Z,19.10
2019-05-30T12:46:14.383Z,19.40
2019-05-30T12:51:19.735Z,19.70
2019-05-30T12:56:28.175Z,19.50
2019-05-30T13:01:33.274Z,19.60
2019-05-30T13:06:40.631Z,19.80
2019-05-30T13:11:45.565Z,20.10
2019-05-30T13:16:50.760Z,20.20
2019-05-30T13:21:57.042Z,20.30
2019-05-30T13:27:03.945Z,20.20
2019-05-30T13:32:09.017Z,20.40
2019-05-30T13:37:14.554Z,20.40
2019-05-30T13:42:19.583Z,20.40
2019-05-30T13:47:24.785Z,20.40
2019-05-30T13:52:30.422Z,20.50
2019-05-30T13:57:35.984Z,20.60
2019-05-30T14:02:43.446Z,20.60
2019-05-30T14:07:48.461Z,20.70
2019-05-30T14:12:54.372Z,20.70
2019-05-30T14:18:04.986Z,20.80
2019-05-30T14:23:13.666Z,20.70
2019-05-30T14:28:19.172Z,20.90
2019-05-30T14:33:24.163Z,20.80
2019-05-30T14:38:30.706Z,20.90
2019-05-30T14:43:36.529Z,20.70
2019-05-30T14:48:41.570Z,20.50
2019-05-30T14:53:46.484Z,20.30
2019-05-30T14:58:54.056Z,20.40
2019-05-30T15:03:58.939Z,20.40
2019-05-30T15:09:15.204Z,20.20
2019-05-30T15:14:13.935Z,20.30
2019-05-30T15:19:18.710Z,20.40
2019-05-30T15:24:24.007Z,20.40
2019-05-30T15:29:28.840Z,20.60
2019-05-30T15:34:34.063Z,20.50
2019-05-30T15:39:38.978Z,20.60
2019-05-30T15:44:45.181Z,20.60
2019-05-30T15:49:52.320Z,20.70
2019-05-30T15:54:57.328Z,20.60
2019-05-30T16:00:02.516Z,20.60
2019-05-30T16:05:10.613Z,20.30
2019-05-30T16:10:17.005Z,20.20
2019-05-30T16:15:22.157Z,20.30
2019-05-30T16:20:27.049Z,20.30
2019-05-30T16:25:32.695Z,20.20
2019-05-30T16:30:38.383Z,20.20
2019-05-30T16:35:44.608Z,20.20
2019-05-30T16:40:49.487Z,20.30
2019-05-30T16:45:54.296Z,20.30
2019-05-30T16:50:59.094Z,20.10
2019-05-30T16:56:04.051Z,20.10
2019-05-30T17:01:08.903Z,20.10
2019-05-30T17:06:14.284Z,20.20
2019-05-30T17:11:26.045Z,20.10
2019-05-30T17:16:33.160Z,20.00
2019-05-30T17:21:38.208Z,20.00
2019-05-30T17:26:45.407Z,19.90
2019-05-30T17:31:50.297Z,19.90
2019-05-30T17:36:55.407Z,19.90
2019-05-30T17:42:01.038Z,19.80
2019-05-30T17:47:05.852Z,19.80
2019-05-30T17:52:10.872Z,19.70
2019-05-30T17:57:15.771Z,19.70
2019-05-30T18:02:20.595Z,19.60
2019-05-30T18:07:25.480Z,19.60
2019-05-30T18:12:31.235Z,19.50
2019-05-30T18:17:36.140Z,19.50
2019-05-30T18:22:41.111Z,19.40
2019-05-30T18:27:47.133Z,19.30
2019-05-30T18:32:52.218Z,19.40
2019-05-30T18:38:01.766Z,19.40
2019-05-30T18:43:06.066Z,19.30
2019-05-30T18:48:12.195Z,19.40
2019-05-30T18:53:18.136Z,19.40
2019-05-30T18:58:23.004Z,19.30
2019-05-30T19:03:28.703Z,19.30
2019-05-30T19:08:36.157Z,19.30
2019-05-30T19:13:43.640Z,19.30
2019-05-30T19:18:49.032Z,19.30
2019-05-30T19:23:56.777Z,19.20
2019-05-30T19:29:02.419Z,19.30
2019-05-30T19:34:07.393Z,19.20
2019-05-30T19:39:12.643Z,19.20
2019-05-30T19:44:17.855Z,19.20
2019-05-30T19:49:23.514Z,19.10
2019-05-30T19:54:30.843Z,19.10
2019-05-30T19:59:36.319Z,19.20
2019-05-30T20:04:42.603Z,19.20
2019-05-30T20:10:00.858Z,19.20
2019-05-30T20:14:56.769Z,19.10
2019-05-30T20:20:02.489Z,19.20
2019-05-30T20:25:09.921Z,19.10
2019-05-30T20:30:18.146Z,19.00
2019-05-30T20:35:23.279Z,18.80
2019-05-30T20:40:28.401Z,18.90
2019-05-30T20:45:42.004Z,18.90
2019-05-30T20:50:45.806Z,18.80
2019-05-30T20:55:51.670Z,18.80
2019-05-30T21:00:56.454Z,18.80
2019-05-30T21:06:01.478Z,18.80
2019-05-30T21:11:08.503Z,18.80
2019-05-30T21:16:15.784Z,18.70
2019-05-30T21:21:20.592Z,18.70
2019-05-30T21:26:25.499Z,18.70
2019-05-30T21:31:30.741Z,18.70
2019-05-30T21:36:36.011Z,18.70
2019-05-30T21:41:42.173Z,18.60
2019-05-30T21:46:48.914Z,18.70
2019-05-30T21:51:55.083Z,18.60
2019-05-30T21:57:00.163Z,18.70
2019-05-30T22:02:05.657Z,18.60
2019-05-30T22:07:10.906Z,18.50
2019-05-30T22:12:16.021Z,18.50
2019-05-30T22:17:21.071Z,18.50
2019-05-30T22:22:25.906Z,18.50
2019-05-30T22:27:31.091Z,18.40
2019-05-30T22:32:36.668Z,18.40
2019-05-30T22:37:48.931Z,18.30
2019-05-30T22:42:54.806Z,18.40
2019-05-30T22:47:59.823Z,18.30
2019-05-30T22:53:05.029Z,18.30
2019-05-30T22:58:10.031Z,18.20
2019-05-30T23:03:15.024Z,18.20
2019-05-30T23:08:20.084Z,18.10
2019-05-30T23:13:37.728Z,18.00
2019-05-30T23:18:31.924Z,18.10
2019-05-30T23:23:36.883Z,18.00
